sensor_id;sensor_type;location;lat;lon;timestamp;P1;durP1;ratioP1;P2;durP2;ratioP2
46931;SDS011;32670;51.464;11.964;2024-01-27T00:00:54;4.27;;;2.37;;
46931;SDS011;32670;51.464;11.964;2024-01-27T00:03:19;4.33;;;2.23;;
46931;SDS011;32670;51.464;11.964;2024-01-27T00:05:44;3.83;;;2.40;;
46931;SDS011;32670;51.464;11.964;2024-01-27T00:08:10;2.80;;;2.50;;
46931;SDS011;32670;51.464;11.964;2024-01-27T00:10:35;2.97;;;2.50;;
46931;SDS011;32670;51.464;11.964;2024-01-27T00:13:01;2.47;;;2.07;;
46931;SDS011;32670;51.464;11.964;2024-01-27T00:15:26;2.70;;;2.40;;
46931;SDS011;32670;51.464;11.964;2024-01-27T00:17:52;3.30;;;2.20;;
46931;SDS011;32670;51.464;11.964;2024-01-27T00:20:17;3.97;;;2.47;;
46931;SDS011;32670;51.464;11.964;2024-01-27T00:22:43;3.13;;;2.57;;
46931;SDS011;32670;51.464;11.964;2024-01-27T00:25:08;5.40;;;4.13;;
46931;SDS011;32670;51.464;11.964;2024-01-27T00:27:33;10.03;;;4.33;;
46931;SDS011;32670;51.464;11.964;2024-01-27T00:29:59;6.70;;;3.57;;
46931;SDS011;32670;51.464;11.964;2024-01-27T00:32:24;8.77;;;3.80;;
46931;SDS011;32670;51.464;11.964;2024-01-27T00:34:50;9.97;;;3.67;;
46931;SDS011;32670;51.464;11.964;2024-01-27T00:37:15;7.87;;;3.20;;
46931;SDS011;32670;51.464;11.964;2024-01-27T00:39:41;5.40;;;3.23;;
46931;SDS011;32670;51.464;11.964;2024-01-27T00:42:06;5.43;;;2.93;;
46931;SDS011;32670;51.464;11.964;2024-01-27T00:44:32;4.27;;;3.00;;
46931;SDS011;32670;51.464;11.964;2024-01-27T00:46:57;4.90;;;3.50;;
46931;SDS011;32670;51.464;11.964;2024-01-27T00:49:23;5.30;;;3.13;;
46931;SDS011;32670;51.464;11.964;2024-01-27T00:51:48;5.80;;;3.33;;
46931;SDS011;32670;51.464;11.964;2024-01-27T00:54:14;6.07;;;3.27;;
46931;SDS011;32670;51.464;11.964;2024-01-27T00:56:39;3.70;;;2.80;;
46931;SDS011;32670;51.464;11.964;2024-01-27T00:59:05;5.20;;;2.80;;
46931;SDS011;32670;51.464;11.964;2024-01-27T01:01:30;5.80;;;3.23;;
46931;SDS011;32670;51.464;11.964;2024-01-27T01:03:56;5.87;;;3.33;;
46931;SDS011;32670;51.464;11.964;2024-01-27T01:06:21;5.50;;;3.40;;
46931;SDS011;32670;51.464;11.964;2024-01-27T01:08:47;9.03;;;3.00;;
46931;SDS011;32670;51.464;11.964;2024-01-27T01:11:13;3.70;;;2.93;;
46931;SDS011;32670;51.464;11.964;2024-01-27T01:13:39;5.47;;;3.20;;
46931;SDS011;32670;51.464;11.964;2024-01-27T01:16:05;3.63;;;2.87;;
46931;SDS011;32670;51.464;11.964;2024-01-27T01:18:32;3.67;;;2.77;;
46931;SDS011;32670;51.464;11.964;2024-01-27T01:20:58;5.20;;;2.80;;
46931;SDS011;32670;51.464;11.964;2024-01-27T01:23:23;4.33;;;2.73;;
46931;SDS011;32670;51.464;11.964;2024-01-27T01:25:49;5.10;;;2.87;;
46931;SDS011;32670;51.464;11.964;2024-01-27T01:28:14;3.33;;;2.60;;
46931;SDS011;32670;51.464;11.964;2024-01-27T01:30:40;3.70;;;2.80;;
46931;SDS011;32670;51.464;11.964;2024-01-27T01:33:05;4.83;;;2.80;;
46931;SDS011;32670;51.464;11.964;2024-01-27T01:35:31;3.63;;;2.77;;
46931;SDS011;32670;51.464;11.964;2024-01-27T01:37:56;4.87;;;2.73;;
46931;SDS011;32670;51.464;11.964;2024-01-27T01:40:21;6.50;;;2.73;;
46931;SDS011;32670;51.464;11.964;2024-01-27T01:42:50;2.77;;;2.33;;
46931;SDS011;32670;51.464;11.964;2024-01-27T01:45:17;6.57;;;2.43;;
46931;SDS011;32670;51.464;11.964;2024-01-27T01:47:42;4.97;;;3.00;;
46931;SDS011;32670;51.464;11.964;2024-01-27T01:50:08;4.20;;;2.60;;
46931;SDS011;32670;51.464;11.964;2024-01-27T01:52:33;6.90;;;2.67;;
46931;SDS011;32670;51.464;11.964;2024-01-27T01:54:59;4.00;;;2.80;;
46931;SDS011;32670;51.464;11.964;2024-01-27T01:57:24;4.70;;;2.67;;
46931;SDS011;32670;51.464;11.964;2024-01-27T01:59:50;6.10;;;2.70;;
46931;SDS011;32670;51.464;11.964;2024-01-27T02:02:16;3.20;;;2.60;;
46931;SDS011;32670;51.464;11.964;2024-01-27T02:04:41;7.00;;;2.90;;
46931;SDS011;32670;51.464;11.964;2024-01-27T02:07:08;4.90;;;2.80;;
46931;SDS011;32670;51.464;11.964;2024-01-27T02:09:34;6.03;;;2.87;;
46931;SDS011;32670;51.464;11.964;2024-01-27T02:11:59;3.50;;;2.50;;
46931;SDS011;32670;51.464;11.964;2024-01-27T02:14:25;4.77;;;2.70;;
46931;SDS011;32670;51.464;11.964;2024-01-27T02:16:52;5.93;;;3.07;;
46931;SDS011;32670;51.464;11.964;2024-01-27T02:19:21;4.03;;;2.90;;
46931;SDS011;32670;51.464;11.964;2024-01-27T02:21:46;4.57;;;2.60;;
46931;SDS011;32670;51.464;11.964;2024-01-27T02:24:12;4.13;;;2.70;;
46931;SDS011;32670;51.464;11.964;2024-01-27T02:26:37;3.57;;;2.40;;
46931;SDS011;32670;51.464;11.964;2024-01-27T02:29:03;3.60;;;2.27;;
46931;SDS011;32670;51.464;11.964;2024-01-27T02:31:28;3.50;;;2.63;;
46931;SDS011;32670;51.464;11.964;2024-01-27T02:33:54;3.33;;;2.53;;
46931;SDS011;32670;51.464;11.964;2024-01-27T02:36:20;4.03;;;2.53;;
46931;SDS011;32670;51.464;11.964;2024-01-27T02:38:45;4.73;;;2.97;;
46931;SDS011;32670;51.464;11.964;2024-01-27T02:41:10;4.30;;;2.60;;
46931;SDS011;32670;51.464;11.964;2024-01-27T02:43:36;3.93;;;2.63;;
46931;SDS011;32670;51.464;11.964;2024-01-27T02:46:03;4.70;;;2.80;;
46931;SDS011;32670;51.464;11.964;2024-01-27T02:48:34;4.13;;;2.57;;
46931;SDS011;32670;51.464;11.964;2024-01-27T02:51:01;3.17;;;2.53;;
46931;SDS011;32670;51.464;11.964;2024-01-27T02:53:27;3.53;;;2.73;;
46931;SDS011;32670;51.464;11.964;2024-01-27T02:55:52;4.33;;;2.40;;
46931;SDS011;32670;51.464;11.964;2024-01-27T02:58:18;3.70;;;2.33;;
46931;SDS011;32670;51.464;11.964;2024-01-27T03:00:43;4.80;;;2.80;;
46931;SDS011;32670;51.464;11.964;2024-01-27T03:03:09;4.17;;;2.10;;
46931;SDS011;32670;51.464;11.964;2024-01-27T03:05:34;3.67;;;2.43;;
46931;SDS011;32670;51.464;11.964;2024-01-27T03:08:00;3.13;;;2.50;;
46931;SDS011;32670;51.464;11.964;2024-01-27T03:10:25;3.07;;;2.17;;
46931;SDS011;32670;51.464;11.964;2024-01-27T03:12:51;3.33;;;2.30;;
46931;SDS011;32670;51.464;11.964;2024-01-27T03:15:16;3.43;;;2.50;;
46931;SDS011;32670;51.464;11.964;2024-01-27T03:17:42;3.13;;;2.13;;
46931;SDS011;32670;51.464;11.964;2024-01-27T03:20:07;3.00;;;2.60;;
46931;SDS011;32670;51.464;11.964;2024-01-27T03:22:33;3.33;;;2.50;;
46931;SDS011;32670;51.464;11.964;2024-01-27T03:24:59;3.23;;;2.33;;
46931;SDS011;32670;51.464;11.964;2024-01-27T03:27:24;4.73;;;2.70;;
46931;SDS011;32670;51.464;11.964;2024-01-27T03:29:50;4.50;;;3.20;;
46931;SDS011;32670;51.464;11.964;2024-01-27T03:32:15;4.73;;;2.53;;
46931;SDS011;32670;51.464;11.964;2024-01-27T03:34:44;3.67;;;2.40;;
46931;SDS011;32670;51.464;11.964;2024-01-27T03:37:12;5.57;;;2.90;;
46931;SDS011;32670;51.464;11.964;2024-01-27T03:39:40;5.57;;;2.93;;
46931;SDS011;32670;51.464;11.964;2024-01-27T03:42:07;5.13;;;3.47;;
46931;SDS011;32670;51.464;11.964;2024-01-27T03:44:33;5.63;;;3.33;;
46931;SDS011;32670;51.464;11.964;2024-01-27T03:46:58;4.80;;;3.50;;
46931;SDS011;32670;51.464;11.964;2024-01-27T03:49:24;6.23;;;3.67;;
46931;SDS011;32670;51.464;11.964;2024-01-27T03:51:49;7.17;;;3.37;;
46931;SDS011;32670;51.464;11.964;2024-01-27T03:54:14;6.53;;;3.10;;
46931;SDS011;32670;51.464;11.964;2024-01-27T03:56:43;5.03;;;3.20;;
46931;SDS011;32670;51.464;11.964;2024-01-27T03:59:08;6.73;;;3.10;;
46931;SDS011;32670;51.464;11.964;2024-01-27T04:01:35;4.67;;;2.90;;
46931;SDS011;32670;51.464;11.964;2024-01-27T04:04:01;6.03;;;3.67;;
46931;SDS011;32670;51.464;11.964;2024-01-27T04:06:27;6.63;;;2.67;;
46931;SDS011;32670;51.464;11.964;2024-01-27T04:08:52;4.73;;;3.47;;
46931;SDS011;32670;51.464;11.964;2024-01-27T04:11:21;5.23;;;3.43;;
46931;SDS011;32670;51.464;11.964;2024-01-27T04:13:48;4.83;;;3.03;;
46931;SDS011;32670;51.464;11.964;2024-01-27T04:16:14;3.83;;;2.87;;
46931;SDS011;32670;51.464;11.964;2024-01-27T04:18:40;7.77;;;3.03;;
46931;SDS011;32670;51.464;11.964;2024-01-27T04:21:06;4.77;;;3.20;;
46931;SDS011;32670;51.464;11.964;2024-01-27T04:23:32;4.53;;;3.03;;
46931;SDS011;32670;51.464;11.964;2024-01-27T04:25:58;5.27;;;2.97;;
46931;SDS011;32670;51.464;11.964;2024-01-27T04:28:24;4.43;;;3.00;;
46931;SDS011;32670;51.464;11.964;2024-01-27T04:30:49;5.60;;;2.70;;
46931;SDS011;32670;51.464;11.964;2024-01-27T04:33:15;5.47;;;3.00;;
46931;SDS011;32670;51.464;11.964;2024-01-27T04:35:40;3.83;;;3.03;;
46931;SDS011;32670;51.464;11.964;2024-01-27T04:38:07;4.20;;;2.80;;
46931;SDS011;32670;51.464;11.964;2024-01-27T04:40:33;4.03;;;2.90;;
46931;SDS011;32670;51.464;11.964;2024-01-27T04:43:00;4.77;;;3.00;;
46931;SDS011;32670;51.464;11.964;2024-01-27T04:45:26;4.90;;;3.00;;
46931;SDS011;32670;51.464;11.964;2024-01-27T04:47:52;5.60;;;3.00;;
46931;SDS011;32670;51.464;11.964;2024-01-27T04:50:18;4.33;;;2.83;;
46931;SDS011;32670;51.464;11.964;2024-01-27T04:52:44;4.87;;;2.90;;
46931;SDS011;32670;51.464;11.964;2024-01-27T04:55:10;3.13;;;2.50;;
46931;SDS011;32670;51.464;11.964;2024-01-27T04:57:35;4.07;;;2.97;;
46931;SDS011;32670;51.464;11.964;2024-01-27T05:00:01;4.37;;;2.80;;
46931;SDS011;32670;51.464;11.964;2024-01-27T05:02:26;4.40;;;2.73;;
46931;SDS011;32670;51.464;11.964;2024-01-27T05:04:52;5.13;;;3.23;;
46931;SDS011;32670;51.464;11.964;2024-01-27T05:07:17;6.37;;;2.80;;
46931;SDS011;32670;51.464;11.964;2024-01-27T05:09:43;5.27;;;2.70;;
46931;SDS011;32670;51.464;11.964;2024-01-27T05:12:08;3.37;;;2.40;;
46931;SDS011;32670;51.464;11.964;2024-01-27T05:14:34;5.80;;;3.57;;
46931;SDS011;32670;51.464;11.964;2024-01-27T05:16:59;3.87;;;2.40;;
46931;SDS011;32670;51.464;11.964;2024-01-27T05:19:25;4.67;;;2.70;;
46931;SDS011;32670;51.464;11.964;2024-01-27T05:21:50;3.77;;;2.90;;
46931;SDS011;32670;51.464;11.964;2024-01-27T05:24:16;4.03;;;2.70;;
46931;SDS011;32670;51.464;11.964;2024-01-27T05:26:41;6.03;;;2.97;;
46931;SDS011;32670;51.464;11.964;2024-01-27T05:29:07;4.30;;;2.70;;
46931;SDS011;32670;51.464;11.964;2024-01-27T05:31:33;3.73;;;2.50;;
46931;SDS011;32670;51.464;11.964;2024-01-27T05:33:59;5.17;;;3.60;;
46931;SDS011;32670;51.464;11.964;2024-01-27T05:36:25;7.67;;;3.57;;
46931;SDS011;32670;51.464;11.964;2024-01-27T05:38:51;6.87;;;2.83;;
46931;SDS011;32670;51.464;11.964;2024-01-27T05:41:16;10.00;;;3.27;;
46931;SDS011;32670;51.464;11.964;2024-01-27T05:43:42;3.80;;;2.73;;
46931;SDS011;32670;51.464;11.964;2024-01-27T05:46:08;4.87;;;2.70;;
46931;SDS011;32670;51.464;11.964;2024-01-27T05:48:35;5.20;;;3.10;;
46931;SDS011;32670;51.464;11.964;2024-01-27T05:51:00;6.43;;;3.30;;
46931;SDS011;32670;51.464;11.964;2024-01-27T05:53:26;4.50;;;2.90;;
46931;SDS011;32670;51.464;11.964;2024-01-27T05:55:52;7.07;;;2.93;;
46931;SDS011;32670;51.464;11.964;2024-01-27T05:58:19;8.40;;;2.70;;
46931;SDS011;32670;51.464;11.964;2024-01-27T06:00:46;7.50;;;3.37;;
46931;SDS011;32670;51.464;11.964;2024-01-27T06:03:12;5.20;;;2.83;;
46931;SDS011;32670;51.464;11.964;2024-01-27T06:05:37;5.40;;;2.70;;
46931;SDS011;32670;51.464;11.964;2024-01-27T06:08:04;8.27;;;2.93;;
46931;SDS011;32670;51.464;11.964;2024-01-27T06:10:30;4.63;;;2.93;;
46931;SDS011;32670;51.464;11.964;2024-01-27T06:12:56;4.40;;;2.77;;
46931;SDS011;32670;51.464;11.964;2024-01-27T06:15:22;8.50;;;2.77;;
46931;SDS011;32670;51.464;11.964;2024-01-27T06:17:47;4.60;;;2.73;;
46931;SDS011;32670;51.464;11.964;2024-01-27T06:20:13;5.40;;;3.00;;
46931;SDS011;32670;51.464;11.964;2024-01-27T06:22:38;5.20;;;3.10;;
46931;SDS011;32670;51.464;11.964;2024-01-27T06:25:04;7.43;;;3.60;;
46931;SDS011;32670;51.464;11.964;2024-01-27T06:27:29;4.33;;;2.87;;
46931;SDS011;32670;51.464;11.964;2024-01-27T06:29:55;6.40;;;3.40;;
46931;SDS011;32670;51.464;11.964;2024-01-27T06:32:20;6.07;;;2.80;;
46931;SDS011;32670;51.464;11.964;2024-01-27T06:34:46;6.57;;;2.83;;
46931;SDS011;32670;51.464;11.964;2024-01-27T06:37:11;5.07;;;2.87;;
46931;SDS011;32670;51.464;11.964;2024-01-27T06:39:37;4.40;;;2.80;;
46931;SDS011;32670;51.464;11.964;2024-01-27T06:42:02;6.47;;;2.90;;
46931;SDS011;32670;51.464;11.964;2024-01-27T06:44:28;4.00;;;2.77;;
46931;SDS011;32670;51.464;11.964;2024-01-27T06:46:53;3.60;;;2.80;;
46931;SDS011;32670;51.464;11.964;2024-01-27T06:49:19;7.43;;;3.17;;
46931;SDS011;32670;51.464;11.964;2024-01-27T06:51:44;5.60;;;3.30;;
46931;SDS011;32670;51.464;11.964;2024-01-27T06:54:10;8.33;;;3.50;;
46931;SDS011;32670;51.464;11.964;2024-01-27T06:56:35;10.37;;;3.70;;
46931;SDS011;32670;51.464;11.964;2024-01-27T06:59:01;9.30;;;3.43;;
46931;SDS011;32670;51.464;11.964;2024-01-27T07:01:27;13.10;;;3.13;;
46931;SDS011;32670;51.464;11.964;2024-01-27T07:03:52;9.40;;;3.23;;
46931;SDS011;32670;51.464;11.964;2024-01-27T07:06:18;7.80;;;3.57;;
46931;SDS011;32670;51.464;11.964;2024-01-27T07:08:44;5.77;;;3.17;;
46931;SDS011;32670;51.464;11.964;2024-01-27T07:11:09;5.67;;;2.90;;
46931;SDS011;32670;51.464;11.964;2024-01-27T07:13:35;7.07;;;2.97;;
46931;SDS011;32670;51.464;11.964;2024-01-27T07:16:00;5.50;;;3.47;;
46931;SDS011;32670;51.464;11.964;2024-01-27T07:18:26;9.13;;;3.13;;
46931;SDS011;32670;51.464;11.964;2024-01-27T07:20:51;10.17;;;3.13;;
46931;SDS011;32670;51.464;11.964;2024-01-27T07:23:18;7.57;;;3.27;;
46931;SDS011;32670;51.464;11.964;2024-01-27T07:25:44;7.43;;;3.30;;
46931;SDS011;32670;51.464;11.964;2024-01-27T07:28:09;9.07;;;3.60;;
46931;SDS011;32670;51.464;11.964;2024-01-27T07:30:35;7.90;;;3.07;;
46931;SDS011;32670;51.464;11.964;2024-01-27T07:33:01;7.47;;;2.97;;
46931;SDS011;32670;51.464;11.964;2024-01-27T07:35:27;6.80;;;3.00;;
46931;SDS011;32670;51.464;11.964;2024-01-27T07:37:53;6.27;;;3.03;;
46931;SDS011;32670;51.464;11.964;2024-01-27T07:40:19;7.40;;;3.10;;
46931;SDS011;32670;51.464;11.964;2024-01-27T07:42:44;6.23;;;3.20;;
46931;SDS011;32670;51.464;11.964;2024-01-27T07:45:10;6.80;;;3.40;;
46931;SDS011;32670;51.464;11.964;2024-01-27T07:47:35;8.20;;;3.30;;
46931;SDS011;32670;51.464;11.964;2024-01-27T07:50:01;6.53;;;2.90;;
46931;SDS011;32670;51.464;11.964;2024-01-27T07:52:26;8.97;;;2.90;;
46931;SDS011;32670;51.464;11.964;2024-01-27T07:54:52;12.47;;;3.00;;
46931;SDS011;32670;51.464;11.964;2024-01-27T07:57:19;12.90;;;3.40;;
46931;SDS011;32670;51.464;11.964;2024-01-27T07:59:44;21.70;;;4.00;;
46931;SDS011;32670;51.464;11.964;2024-01-27T08:02:10;7.40;;;3.00;;
46931;SDS011;32670;51.464;11.964;2024-01-27T08:04:35;6.30;;;3.00;;
46931;SDS011;32670;51.464;11.964;2024-01-27T08:07:03;9.10;;;3.03;;
46931;SDS011;32670;51.464;11.964;2024-01-27T08:09:34;12.87;;;3.43;;
46931;SDS011;32670;51.464;11.964;2024-01-27T08:12:00;7.93;;;3.00;;
46931;SDS011;32670;51.464;11.964;2024-01-27T08:14:26;8.33;;;2.70;;
46931;SDS011;32670;51.464;11.964;2024-01-27T08:16:55;8.37;;;3.17;;
46931;SDS011;32670;51.464;11.964;2024-01-27T08:19:21;8.10;;;2.97;;
46931;SDS011;32670;51.464;11.964;2024-01-27T08:21:48;7.90;;;3.23;;
46931;SDS011;32670;51.464;11.964;2024-01-27T08:24:14;7.93;;;3.00;;
46931;SDS011;32670;51.464;11.964;2024-01-27T08:26:39;6.67;;;2.67;;
46931;SDS011;32670;51.464;11.964;2024-01-27T08:29:07;7.73;;;3.13;;
46931;SDS011;32670;51.464;11.964;2024-01-27T08:31:35;8.63;;;3.50;;
46931;SDS011;32670;51.464;11.964;2024-01-27T08:34:03;7.20;;;2.80;;
46931;SDS011;32670;51.464;11.964;2024-01-27T08:36:28;5.33;;;2.40;;
46931;SDS011;32670;51.464;11.964;2024-01-27T08:38:53;6.40;;;2.40;;
46931;SDS011;32670;51.464;11.964;2024-01-27T08:41:19;5.80;;;2.70;;
46931;SDS011;32670;51.464;11.964;2024-01-27T08:43:44;9.53;;;3.07;;
46931;SDS011;32670;51.464;11.964;2024-01-27T08:46:10;7.57;;;3.00;;
46931;SDS011;32670;51.464;11.964;2024-01-27T08:48:37;6.77;;;2.80;;
46931;SDS011;32670;51.464;11.964;2024-01-27T08:51:03;8.33;;;2.90;;
46931;SDS011;32670;51.464;11.964;2024-01-27T08:53:29;6.63;;;2.90;;
46931;SDS011;32670;51.464;11.964;2024-01-27T08:55:54;8.80;;;2.97;;
46931;SDS011;32670;51.464;11.964;2024-01-27T08:58:20;7.73;;;3.20;;
46931;SDS011;32670;51.464;11.964;2024-01-27T09:00:45;9.43;;;2.90;;
46931;SDS011;32670;51.464;11.964;2024-01-27T09:03:11;7.50;;;3.00;;
46931;SDS011;32670;51.464;11.964;2024-01-27T09:05:37;8.03;;;3.00;;
46931;SDS011;32670;51.464;11.964;2024-01-27T09:08:03;5.27;;;2.87;;
46931;SDS011;32670;51.464;11.964;2024-01-27T09:10:29;7.73;;;3.13;;
46931;SDS011;32670;51.464;11.964;2024-01-27T09:12:54;6.40;;;2.87;;
46931;SDS011;32670;51.464;11.964;2024-01-27T09:15:20;4.73;;;2.57;;
46931;SDS011;32670;51.464;11.964;2024-01-27T09:17:45;6.47;;;2.83;;
46931;SDS011;32670;51.464;11.964;2024-01-27T09:20:12;5.33;;;2.53;;
46931;SDS011;32670;51.464;11.964;2024-01-27T09:22:38;6.17;;;2.43;;
46931;SDS011;32670;51.464;11.964;2024-01-27T09:25:04;6.30;;;2.70;;
46931;SDS011;32670;51.464;11.964;2024-01-27T09:27:30;4.60;;;2.27;;
46931;SDS011;32670;51.464;11.964;2024-01-27T09:29:55;5.20;;;2.50;;
46931;SDS011;32670;51.464;11.964;2024-01-27T09:32:21;5.90;;;2.50;;
46931;SDS011;32670;51.464;11.964;2024-01-27T09:34:47;4.77;;;2.10;;
46931;SDS011;32670;51.464;11.964;2024-01-27T09:37:12;4.30;;;2.37;;
46931;SDS011;32670;51.464;11.964;2024-01-27T09:39:38;5.80;;;2.60;;
46931;SDS011;32670;51.464;11.964;2024-01-27T09:42:04;5.73;;;2.20;;
46931;SDS011;32670;51.464;11.964;2024-01-27T09:44:32;5.77;;;2.30;;
46931;SDS011;32670;51.464;11.964;2024-01-27T09:46:59;4.10;;;2.23;;
46931;SDS011;32670;51.464;11.964;2024-01-27T09:49:25;4.70;;;2.40;;
46931;SDS011;32670;51.464;11.964;2024-01-27T09:51:52;4.37;;;2.10;;
46931;SDS011;32670;51.464;11.964;2024-01-27T09:54:17;6.03;;;2.10;;
46931;SDS011;32670;51.464;11.964;2024-01-27T09:56:45;3.40;;;1.90;;
46931;SDS011;32670;51.464;11.964;2024-01-27T09:59:11;5.37;;;2.40;;
46931;SDS011;32670;51.464;11.964;2024-01-27T10:01:39;5.50;;;2.50;;
46931;SDS011;32670;51.464;11.964;2024-01-27T10:04:05;4.73;;;2.20;;
46931;SDS011;32670;51.464;11.964;2024-01-27T10:06:34;4.77;;;2.10;;
46931;SDS011;32670;51.464;11.964;2024-01-27T10:08:59;6.50;;;2.10;;
46931;SDS011;32670;51.464;11.964;2024-01-27T10:11:24;3.80;;;2.20;;
46931;SDS011;32670;51.464;11.964;2024-01-27T10:13:55;4.37;;;2.13;;
46931;SDS011;32670;51.464;11.964;2024-01-27T10:16:21;4.90;;;2.23;;
46931;SDS011;32670;51.464;11.964;2024-01-27T10:18:46;4.33;;;2.17;;
46931;SDS011;32670;51.464;11.964;2024-01-27T10:21:12;4.63;;;2.00;;
46931;SDS011;32670;51.464;11.964;2024-01-27T10:23:39;3.50;;;1.97;;
46931;SDS011;32670;51.464;11.964;2024-01-27T10:26:05;3.77;;;2.17;;
46931;SDS011;32670;51.464;11.964;2024-01-27T10:28:34;2.63;;;1.63;;
46931;SDS011;32670;51.464;11.964;2024-01-27T10:31:12;4.10;;;2.10;;
46931;SDS011;32670;51.464;11.964;2024-01-27T10:33:38;4.30;;;2.00;;
46931;SDS011;32670;51.464;11.964;2024-01-27T10:36:04;3.40;;;1.97;;
46931;SDS011;32670;51.464;11.964;2024-01-27T10:38:37;4.10;;;1.83;;
46931;SDS011;32670;51.464;11.964;2024-01-27T10:41:04;3.20;;;1.73;;
46931;SDS011;32670;51.464;11.964;2024-01-27T10:43:33;3.97;;;1.80;;
46931;SDS011;32670;51.464;11.964;2024-01-27T10:46:00;4.97;;;1.83;;
46931;SDS011;32670;51.464;11.964;2024-01-27T10:48:28;3.27;;;1.80;;
46931;SDS011;32670;51.464;11.964;2024-01-27T10:50:54;3.87;;;1.90;;
46931;SDS011;32670;51.464;11.964;2024-01-27T10:53:22;4.13;;;1.63;;
46931;SDS011;32670;51.464;11.964;2024-01-27T10:55:53;4.23;;;2.00;;
46931;SDS011;32670;51.464;11.964;2024-01-27T10:58:22;3.20;;;1.83;;
46931;SDS011;32670;51.464;11.964;2024-01-27T11:00:50;4.77;;;1.97;;
46931;SDS011;32670;51.464;11.964;2024-01-27T11:03:18;3.73;;;2.03;;
46931;SDS011;32670;51.464;11.964;2024-01-27T11:05:45;3.93;;;1.60;;
46931;SDS011;32670;51.464;11.964;2024-01-27T11:08:12;3.20;;;1.80;;
46931;SDS011;32670;51.464;11.964;2024-01-27T11:10:38;2.33;;;1.60;;
46931;SDS011;32670;51.464;11.964;2024-01-27T11:13:05;3.33;;;1.70;;
46931;SDS011;32670;51.464;11.964;2024-01-27T11:15:32;3.17;;;2.00;;
46931;SDS011;32670;51.464;11.964;2024-01-27T11:17:58;2.50;;;1.60;;
46931;SDS011;32670;51.464;11.964;2024-01-27T11:20:25;2.73;;;1.50;;
46931;SDS011;32670;51.464;11.964;2024-01-27T11:22:50;3.03;;;1.60;;
46931;SDS011;32670;51.464;11.964;2024-01-27T11:25:17;2.67;;;1.63;;
46931;SDS011;32670;51.464;11.964;2024-01-27T11:27:44;2.90;;;1.70;;
46931;SDS011;32670;51.464;11.964;2024-01-27T11:30:25;3.07;;;1.70;;
46931;SDS011;32670;51.464;11.964;2024-01-27T11:33:01;3.07;;;1.60;;
46931;SDS011;32670;51.464;11.964;2024-01-27T11:35:27;2.57;;;1.70;;
46931;SDS011;32670;51.464;11.964;2024-01-27T11:37:53;1.87;;;1.40;;
46931;SDS011;32670;51.464;11.964;2024-01-27T11:40:19;3.43;;;2.00;;
46931;SDS011;32670;51.464;11.964;2024-01-27T11:42:57;4.10;;;1.80;;
46931;SDS011;32670;51.464;11.964;2024-01-27T11:45:24;3.00;;;1.80;;
46931;SDS011;32670;51.464;11.964;2024-01-27T11:47:50;2.77;;;1.70;;
46931;SDS011;32670;51.464;11.964;2024-01-27T11:50:19;2.17;;;1.60;;
46931;SDS011;32670;51.464;11.964;2024-01-27T11:52:45;2.63;;;1.60;;
46931;SDS011;32670;51.464;11.964;2024-01-27T11:55:11;2.20;;;1.50;;
46931;SDS011;32670;51.464;11.964;2024-01-27T11:57:37;2.10;;;1.60;;
46931;SDS011;32670;51.464;11.964;2024-01-27T12:00:03;2.80;;;1.60;;
46931;SDS011;32670;51.464;11.964;2024-01-27T12:02:29;3.33;;;1.77;;
46931;SDS011;32670;51.464;11.964;2024-01-27T12:04:54;2.70;;;1.60;;
46931;SDS011;32670;51.464;11.964;2024-01-27T12:07:20;3.10;;;1.90;;
46931;SDS011;32670;51.464;11.964;2024-01-27T12:09:46;2.20;;;1.60;;
46931;SDS011;32670;51.464;11.964;2024-01-27T12:12:13;2.93;;;2.00;;
46931;SDS011;32670;51.464;11.964;2024-01-27T12:14:44;2.57;;;1.50;;
46931;SDS011;32670;51.464;11.964;2024-01-27T12:17:10;2.27;;;1.50;;
46931;SDS011;32670;51.464;11.964;2024-01-27T12:19:36;2.87;;;1.70;;
46931;SDS011;32670;51.464;11.964;2024-01-27T12:22:03;2.40;;;1.57;;
46931;SDS011;32670;51.464;11.964;2024-01-27T12:24:29;2.20;;;1.67;;
46931;SDS011;32670;51.464;11.964;2024-01-27T12:26:57;1.80;;;1.57;;
46931;SDS011;32670;51.464;11.964;2024-01-27T12:29:23;2.10;;;1.30;;
46931;SDS011;32670;51.464;11.964;2024-01-27T12:31:48;2.67;;;1.60;;
46931;SDS011;32670;51.464;11.964;2024-01-27T12:34:14;2.20;;;1.53;;
46931;SDS011;32670;51.464;11.964;2024-01-27T12:36:42;1.90;;;1.60;;
46931;SDS011;32670;51.464;11.964;2024-01-27T12:39:08;2.23;;;1.67;;
46931;SDS011;32670;51.464;11.964;2024-01-27T12:41:34;2.57;;;1.53;;
46931;SDS011;32670;51.464;11.964;2024-01-27T12:44:00;2.93;;;1.40;;
46931;SDS011;32670;51.464;11.964;2024-01-27T12:46:27;2.23;;;1.30;;
46931;SDS011;32670;51.464;11.964;2024-01-27T12:48:53;2.20;;;1.50;;
46931;SDS011;32670;51.464;11.964;2024-01-27T12:51:19;2.00;;;1.40;;
46931;SDS011;32670;51.464;11.964;2024-01-27T12:53:45;2.00;;;1.60;;
46931;SDS011;32670;51.464;11.964;2024-01-27T12:56:11;3.20;;;1.60;;
46931;SDS011;32670;51.464;11.964;2024-01-27T12:58:38;1.80;;;1.17;;
46931;SDS011;32670;51.464;11.964;2024-01-27T13:01:03;2.23;;;1.57;;
46931;SDS011;32670;51.464;11.964;2024-01-27T13:03:29;1.93;;;1.23;;
46931;SDS011;32670;51.464;11.964;2024-01-27T13:05:56;1.70;;;1.27;;
46931;SDS011;32670;51.464;11.964;2024-01-27T13:08:22;2.00;;;1.27;;
46931;SDS011;32670;51.464;11.964;2024-01-27T13:10:47;1.53;;;1.23;;
46931;SDS011;32670;51.464;11.964;2024-01-27T13:13:13;1.87;;;1.40;;
46931;SDS011;32670;51.464;11.964;2024-01-27T13:15:39;1.60;;;1.30;;
46931;SDS011;32670;51.464;11.964;2024-01-27T13:18:04;1.50;;;1.33;;
46931;SDS011;32670;51.464;11.964;2024-01-27T13:20:30;2.53;;;1.60;;
46931;SDS011;32670;51.464;11.964;2024-01-27T13:22:56;2.10;;;1.20;;
46931;SDS011;32670;51.464;11.964;2024-01-27T13:25:21;1.87;;;1.60;;
46931;SDS011;32670;51.464;11.964;2024-01-27T13:27:47;1.93;;;1.37;;
46931;SDS011;32670;51.464;11.964;2024-01-27T13:30:13;2.30;;;1.17;;
46931;SDS011;32670;51.464;11.964;2024-01-27T13:32:39;2.47;;;1.40;;
46931;SDS011;32670;51.464;11.964;2024-01-27T13:35:05;2.20;;;1.20;;
46931;SDS011;32670;51.464;11.964;2024-01-27T13:37:32;2.03;;;1.33;;
46931;SDS011;32670;51.464;11.964;2024-01-27T13:40:01;1.60;;;1.20;;
46931;SDS011;32670;51.464;11.964;2024-01-27T13:42:28;2.80;;;1.30;;
46931;SDS011;32670;51.464;11.964;2024-01-27T13:44:54;1.63;;;1.40;;
46931;SDS011;32670;51.464;11.964;2024-01-27T13:47:19;1.70;;;1.33;;
46931;SDS011;32670;51.464;11.964;2024-01-27T13:49:45;1.17;;;1.07;;
46931;SDS011;32670;51.464;11.964;2024-01-27T13:52:10;1.10;;;1.00;;
46931;SDS011;32670;51.464;11.964;2024-01-27T13:54:36;1.57;;;1.20;;
46931;SDS011;32670;51.464;11.964;2024-01-27T13:57:02;1.60;;;1.20;;
46931;SDS011;32670;51.464;11.964;2024-01-27T13:59:28;1.80;;;1.20;;
46931;SDS011;32670;51.464;11.964;2024-01-27T14:01:54;1.87;;;1.17;;
46931;SDS011;32670;51.464;11.964;2024-01-27T14:04:21;1.20;;;1.10;;
46931;SDS011;32670;51.464;11.964;2024-01-27T14:06:47;2.10;;;1.10;;
46931;SDS011;32670;51.464;11.964;2024-01-27T14:09:13;5.07;;;1.23;;
46931;SDS011;32670;51.464;11.964;2024-01-27T14:11:39;2.43;;;1.20;;
46931;SDS011;32670;51.464;11.964;2024-01-27T14:14:04;2.70;;;1.40;;
46931;SDS011;32670;51.464;11.964;2024-01-27T14:16:30;2.10;;;1.47;;
46931;SDS011;32670;51.464;11.964;2024-01-27T14:18:56;2.20;;;1.30;;
46931;SDS011;32670;51.464;11.964;2024-01-27T14:21:22;2.43;;;1.60;;
46931;SDS011;32670;51.464;11.964;2024-01-27T14:23:48;3.77;;;1.53;;
46931;SDS011;32670;51.464;11.964;2024-01-27T14:26:14;4.50;;;1.43;;